Time;durP1;ratioP1;P1;durP2;ratioP2;P2;SDS_P1;SDS_P2;PMS_P1;PMS_P2;Temp;Humidity;BMP_temperature;BMP_pressure;BME280_temperature;BME280_humidity;BME280_pressure;Samples;Min_cycle;Max_cycle;Signal;HPM_P1;HPM_P2
2021/11/03 00:01:17;;;;;;;30.37;19.47;;;;;;;7.44;76.70;98861.13;5083542;28;20839;-73
2021/11/03 00:03:46;;;;;;;29.70;17.80;;;;;;;7.33;76.89;98862.22;5083854;28;20515;-72
2021/11/03 00:06:15;;;;;;;24.87;16.90;;;;;;;7.30;76.66;98864.34;5065395;28;20468;-73
2021/11/03 00:08:42;;;;;;;32.53;19.77;;;;;;;7.24;76.57;98864.94;5084876;28;20490;-73
2021/11/03 00:11:09;;;;;;;31.60;18.67;;;;;;;7.15;78.27;98867.56;5084137;28;20525;-72
2021/11/03 00:13:36;;;;;;;28.27;17.40;;;;;;;7.24;78.20;98876.44;5082635;28;20456;-73
2021/11/03 00:16:05;;;;;;;32.00;20.37;;;;;;;7.22;78.32;98878.41;5083185;28;20479;-73
2021/11/03 00:18:31;;;;;;;26.70;17.97;;;;;;;7.26;78.55;98874.44;5083318;28;20458;-73
2021/11/03 00:20:59;;;;;;;30.10;19.37;;;;;;;7.19;79.31;98875.19;5083709;28;20467;-73
2021/11/03 00:23:26;;;;;;;30.67;19.30;;;;;;;7.28;79.37;98869.81;5083877;28;20486;-73
2021/11/03 00:25:52;;;;;;;31.10;19.07;;;;;;;7.19;80.40;98861.91;5083103;28;20472;-74
2021/11/03 00:28:20;;;;;;;32.87;19.43;;;;;;;7.34;79.56;98863.03;5084137;28;20491;-73
2021/11/03 00:30:49;;;;;;;35.90;20.20;;;;;;;7.32;80.09;98865.84;5083054;28;20504;-73
2021/11/03 00:33:19;;;;;;;32.67;20.10;;;;;;;7.34;79.76;98861.22;5083116;28;20486;-72
2021/11/03 00:35:45;;;;;;;36.27;20.63;;;;;;;7.27;80.24;98859.31;5082589;28;20476;-73
2021/11/03 00:38:12;;;;;;;33.87;20.77;;;;;;;7.38;79.63;98853.78;5084052;28;20436;-73
2021/11/03 00:40:39;;;;;;;33.57;21.10;;;;;;;7.30;80.08;98849.22;5083301;28;20567;-73
2021/11/03 00:43:06;;;;;;;35.00;21.87;;;;;;;7.39;79.78;98851.94;5082750;28;20456;-73
2021/11/03 00:45:34;;;;;;;36.57;20.83;;;;;;;7.26;80.05;98855.84;5083395;28;20476;-73
2021/11/03 00:48:01;;;;;;;39.17;22.30;;;;;;;7.35;79.94;98862.06;5082324;28;20965;-73
2021/11/03 00:50:29;;;;;;;38.17;22.37;;;;;;;7.36;80.01;98869.06;5083687;28;20487;-72
2021/11/03 00:52:56;;;;;;;34.17;21.47;;;;;;;7.37;79.55;98859.25;5083342;28;20479;-73
2021/11/03 00:55:23;;;;;;;36.23;21.00;;;;;;;7.28;80.30;98855.69;5082543;28;20977;-73
2021/11/03 00:57:50;;;;;;;34.80;20.77;;;;;;;7.23;80.19;98852.66;5083114;28;20467;-73
2021/11/03 01:00:18;;;;;;;38.20;22.87;;;;;;;7.26;80.25;98853.19;5082718;28;20551;-73
2021/11/03 01:02:45;;;;;;;35.80;21.93;;;;;;;7.26;80.21;98845.22;5082032;28;20499;-73
2021/11/03 01:05:13;;;;;;;37.20;21.73;;;;;;;7.22;80.12;98848.31;5082075;28;20511;-73
2021/11/03 01:07:41;;;;;;;35.60;21.20;;;;;;;7.09;80.76;98846.88;5083181;28;20969;-74
2021/11/03 01:10:10;;;;;;;39.10;22.10;;;;;;;7.07;80.63;98846.22;5082687;28;20567;-73
2021/11/03 01:12:37;;;;;;;39.80;22.10;;;;;;;6.99;81.26;98848.78;5081980;28;20535;-73
2021/11/03 01:15:06;;;;;;;33.40;20.70;;;;;;;7.12;81.10;98848.41;5082408;28;20980;-72
2021/11/03 01:17:32;;;;;;;36.60;21.97;;;;;;;7.05;81.18;98847.34;5081805;28;20555;-72
2021/11/03 01:19:59;;;;;;;29.63;20.00;;;;;;;7.02;81.22;98842.34;5083358;28;20428;-73
2021/11/03 01:22:26;;;;;;;35.57;21.63;;;;;;;6.97;81.61;98840.97;5081932;28;20499;-73
2021/11/03 01:24:54;;;;;;;32.67;20.43;;;;;;;7.01;81.26;98843.31;5082578;28;20475;-73
2021/11/03 01:27:20;;;;;;;38.73;22.40;;;;;;;7.00;81.00;98845.16;5082044;28;20512;-73
2021/11/03 01:29:47;;;;;;;36.47;22.07;;;;;;;6.99;81.27;98840.81;5082712;28;20826;-73
2021/11/03 01:32:13;;;;;;;35.20;22.10;;;;;;;7.15;80.37;98845.44;5080394;28;20543;-74
2021/11/03 01:34:40;;;;;;;35.30;21.40;;;;;;;7.07;80.56;98843.56;5082491;28;20483;-73
2021/11/03 01:37:07;;;;;;;36.57;22.63;;;;;;;7.00;81.18;98839.00;5081911;28;20551;-73
2021/11/03 01:39:33;;;;;;;39.57;23.13;;;;;;;6.99;81.16;98838.16;5082938;28;20471;-74
2021/11/03 01:42:01;;;;;;;32.20;20.23;;;;;;;7.06;80.41;98839.22;5082030;28;20563;-73
2021/11/03 01:44:28;;;;;;;33.67;20.80;;;;;;;6.99;80.43;98835.50;5081499;28;20524;-73
2021/11/03 01:46:56;;;;;;;34.20;20.90;;;;;;;6.94;80.90;98829.81;5081674;28;20502;-73
2021/11/03 01:49:25;;;;;;;38.30;20.40;;;;;;;7.05;80.02;98836.72;5082490;28;20471;-73
2021/11/03 01:51:55;;;;;;;34.63;21.30;;;;;;;6.97;80.16;98840.97;5082552;28;20503;-73
2021/11/03 01:54:27;;;;;;;30.60;20.40;;;;;;;6.99;80.03;98840.81;5082097;28;20479;-73
2021/11/03 01:56:54;;;;;;;33.00;20.13;;;;;;;6.99;79.78;98835.50;5081458;28;20510;-73
2021/11/03 01:59:24;;;;;;;31.60;19.87;;;;;;;6.97;79.14;98840.13;5082684;28;20463;-73
2021/11/03 02:01:51;;;;;;;29.80;19.60;;;;;;;6.79;79.53;98845.47;5081604;28;20576;-73
2021/11/03 02:04:19;;;;;;;31.40;20.87;;;;;;;6.65;80.06;98835.34;5081532;28;20567;-73
2021/11/03 02:06:46;;;;;;;31.77;19.13;;;;;;;6.60;80.36;98830.50;5082021;28;20575;-72
2021/11/03 02:09:12;;;;;;;34.70;21.00;;;;;;;6.61;80.42;98840.13;5078004;28;20512;-73
2021/11/03 02:11:39;;;;;;;26.83;18.13;;;;;;;6.48;80.68;98837.84;5080725;28;20511;-73
2021/11/03 02:14:08;;;;;;;35.97;20.80;;;;;;;6.37;80.90;98838.03;5081899;28;20519;-72
2021/11/03 02:16:39;;;;;;;38.80;22.00;;;;;;;6.20;81.36;98840.50;5081434;28;20508;-72
2021/11/03 02:19:11;;;;;;;38.77;22.10;;;;;;;6.20;81.13;98840.50;5082256;28;20543;-72
2021/11/03 02:21:42;;;;;;;33.17;22.13;;;;;;;6.14;81.67;98834.94;5081575;28;21248;-73
2021/11/03 02:24:15;;;;;;;39.97;21.93;;;;;;;6.17;81.44;98840.78;5081492;28;20523;-73
2021/11/03 02:26:46;;;;;;;34.83;21.20;;;;;;;6.01;80.84;98833.47;5082005;28;20506;-73
2021/11/03 02:29:14;;;;;;;34.73;23.07;;;;;;;6.05;80.97;98841.13;5081583;28;20471;-73
2021/11/03 02:31:43;;;;;;;38.83;22.17;;;;;;;6.03;80.94;98836.78;5081148;28;20495;-74
2021/11/03 02:34:12;;;;;;;38.83;21.77;;;;;;;6.12;80.58;98836.91;5061057;28;20481;-73
2021/11/03 02:36:51;;;;;;;37.30;21.80;;;;;;;6.15;79.94;98845.41;5076075;28;20552;-74
2021/11/03 02:39:20;;;;;;;36.60;22.17;;;;;;;6.05;79.83;98836.66;5082092;28;20439;-74
2021/11/03 02:41:48;;;;;;;36.83;21.50;;;;;;;5.88;80.26;98840.88;5081006;28;20550;-73
2021/11/03 02:44:16;;;;;;;36.37;21.90;;;;;;;5.86;80.66;98840.19;5081600;28;20483;-73
2021/11/03 02:46:43;;;;;;;36.90;22.50;;;;;;;5.87;80.65;98838.38;5082339;28;20870;-74
2021/11/03 02:49:10;;;;;;;37.90;21.97;;;;;;;5.83;81.03;98843.13;5085173;28;20570;-73
2021/11/03 02:51:39;;;;;;;38.70;22.03;;;;;;;5.88;81.25;98842.69;5085046;28;20510;-73
2021/11/03 02:54:08;;;;;;;35.53;22.53;;;;;;;5.93;81.48;98843.09;5085043;28;20483;-73
2021/11/03 02:56:37;;;;;;;35.27;20.53;;;;;;;5.80;81.14;98838.97;5084560;28;20500;-73
2021/11/03 02:59:07;;;;;;;39.10;24.20;;;;;;;5.83;81.05;98836.03;5085459;28;20432;-74
2021/11/03 03:01:36;;;;;;;45.30;23.20;;;;;;;5.76;81.05;98831.44;5084741;28;20555;-73
2021/11/03 03:04:07;;;;;;;34.80;21.23;;;;;;;5.61;80.79;98826.59;5084495;28;20475;-74
2021/11/03 03:06:34;;;;;;;38.80;22.90;;;;;;;5.59;81.15;98825.06;5085424;28;20514;-74
2021/11/03 03:09:01;;;;;;;38.37;22.23;;;;;;;5.47;81.32;98829.72;5085461;28;20522;-72
2021/11/03 03:11:30;;;;;;;39.73;22.23;;;;;;;5.56;81.62;98828.00;5084574;28;20519;-74
2021/11/03 03:13:57;;;;;;;38.00;21.87;;;;;;;5.52;82.14;98831.91;5084876;28;20487;-73
2021/11/03 03:16:25;;;;;;;43.43;23.30;;;;;;;5.53;82.45;98842.38;5084873;28;20484;-74
2021/11/03 03:18:52;;;;;;;41.27;23.47;;;;;;;5.56;82.28;98844.75;5084989;28;20519;-74
2021/11/03 03:21:24;;;;;;;39.20;22.93;;;;;;;5.70;81.64;98847.94;5084557;28;20984;-74
2021/11/03 03:23:51;;;;;;;34.70;20.30;;;;;;;5.64;80.92;98851.97;5085059;28;20515;-74
2021/11/03 03:26:21;;;;;;;37.60;23.40;;;;;;;5.59;80.57;98855.06;5084012;28;20506;-73
2021/11/03 03:28:48;;;;;;;37.13;20.50;;;;;;;5.50;80.40;98842.66;5085320;28;20448;-74
2021/11/03 03:31:16;;;;;;;43.40;22.20;;;;;;;5.55;79.82;98850.19;5084457;28;20574;-73
2021/11/03 03:33:45;;;;;;;44.53;21.67;;;;;;;5.50;79.59;98842.66;5084250;28;20460;-73
2021/11/03 03:36:12;;;;;;;36.37;21.70;;;;;;;5.44;79.60;98838.75;5084187;28;20467;-73
2021/11/03 03:38:40;;;;;;;33.47;19.47;;;;;;;5.62;78.80;98824.78;5084919;28;20767;-73
2021/11/03 03:41:07;;;;;;;37.97;20.43;;;;;;;5.56;78.43;98831.50;5084029;28;20472;-73
2021/11/03 03:43:33;;;;;;;42.20;21.47;;;;;;;5.56;78.47;98828.00;5083902;28;20484;-73
2021/11/03 03:46:00;;;;;;;35.93;22.07;;;;;;;5.53;78.33;98821.16;5084293;28;20500;-73
2021/11/03 03:48:27;;;;;;;34.83;20.53;;;;;;;5.49;78.38;98819.78;5083942;28;20483;-74
2021/11/03 03:50:55;;;;;;;29.50;19.30;;;;;;;5.47;78.85;98809.34;5083648;28;20495;-74
2021/11/03 03:53:21;;;;;;;36.97;19.67;;;;;;;5.40;80.28;98812.69;5084628;28;20529;-73
2021/11/03 03:55:49;;;;;;;34.03;19.90;;;;;;;5.14;80.65;98809.78;5083744;28;21103;-73
2021/11/03 03:58:17;;;;;;;33.90;19.80;;;;;;;5.26;81.28;98803.41;5084309;28;20630;-73
2021/11/03 04:00:44;;;;;;;37.13;19.80;;;;;;;5.37;81.51;98807.69;5084174;28;20541;-73
2021/11/03 04:03:11;;;;;;;34.70;20.17;;;;;;;5.49;81.80;98805.72;5083526;28;20484;-73
2021/11/03 04:05:38;;;;;;;35.40;19.30;;;;;;;5.45;82.17;98805.13;5083274;28;20556;-73
2021/11/03 04:08:06;;;;;;;36.37;21.17;;;;;;;5.52;81.32;98803.59;5084778;28;20429;-74
2021/11/03 04:10:33;;;;;;;30.10;19.83;;;;;;;5.42;80.07;98806.28;5083096;28;20472;-73
2021/11/03 04:13:00;;;;;;;29.13;19.73;;;;;;;5.36;79.93;98803.34;5083608;28;20516;-74
2021/11/03 04:15:26;;;;;;;34.27;20.20;;;;;;;5.35;81.13;98810.47;5083361;28;20591;-74
2021/11/03 04:17:53;;;;;;;35.03;21.53;;;;;;;5.32;81.30;98826.66;5082834;28;20483;-73
2021/11/03 04:20:20;;;;;;;37.80;21.43;;;;;;;5.31;81.52;98824.16;5083417;28;21015;-74
2021/11/03 04:22:47;;;;;;;33.47;20.07;;;;;;;5.40;81.18;98825.94;5084189;28;20483;-73
2021/11/03 04:25:16;;;;;;;32.37;20.00;;;;;;;5.40;80.19;98840.03;5083882;28;20523;-73
2021/11/03 04:27:42;;;;;;;33.97;20.37;;;;;;;5.40;79.86;98831.22;5083485;28;20471;-73
2021/11/03 04:30:11;;;;;;;24.67;17.50;;;;;;;5.32;79.46;98837.25;5083089;28;20518;-73
2021/11/03 04:32:38;;;;;;;38.30;20.30;;;;;;;5.11;80.53;98842.72;5083252;28;20547;-72
2021/11/03 04:35:08;;;;;;;33.90;19.50;;;;;;;5.05;80.93;98848.56;5083721;28;20480;-73
2021/11/03 04:37:34;;;;;;;33.50;18.63;;;;;;;5.04;80.48;98857.50;5082318;28;20463;-73
2021/11/03 04:40:01;;;;;;;32.53;19.93;;;;;;;4.91;81.09;98849.81;5083747;28;20470;-73
2021/11/03 04:42:29;;;;;;;34.23;19.80;;;;;;;4.89;81.33;98852.59;5082837;28;20547;-73
2021/11/03 04:44:56;;;;;;;31.07;19.60;;;;;;;4.98;81.30;98850.97;5083668;28;20547;-73
2021/11/03 04:47:22;;;;;;;37.87;19.70;;;;;;;5.07;80.77;98849.28;5082172;28;20614;-73
2021/11/03 04:49:49;;;;;;;33.60;20.27;;;;;;;5.08;80.33;98845.66;5082815;28;20499;-73
2021/11/03 04:52:15;;;;;;;36.63;20.30;;;;;;;5.08;79.78;98848.28;5082893;28;20536;-73
2021/11/03 04:54:42;;;;;;;30.57;19.20;;;;;;;5.04;79.43;98854.84;5083642;28;20471;-73
2021/11/03 04:57:09;;;;;;;32.83;19.07;;;;;;;5.10;78.96;98862.22;5082922;28;20498;-73
2021/11/03 04:59:37;;;;;;;28.27;19.20;;;;;;;5.07;78.88;98873.13;5082876;28;20459;-73
2021/11/03 05:02:04;;;;;;;29.03;19.23;;;;;;;5.02;78.90;98867.41;5082030;28;20490;-73
2021/11/03 05:04:31;;;;;;;34.73;19.77;;;;;;;5.04;78.61;98870.75;5082629;28;20512;-73
2021/11/03 05:06:57;;;;;;;30.00;19.17;;;;;;;4.98;78.94;98873.94;5082919;28;20547;-73
2021/11/03 05:09:24;;;;;;;33.13;19.30;;;;;;;4.89;78.67;98873.78;5082189;28;20492;-73
2021/11/03 05:11:51;;;;;;;28.67;18.67;;;;;;;4.86;78.40;98868.78;5080260;28;20503;-73
2021/11/03 05:14:17;;;;;;;28.47;17.50;;;;;;;4.76;78.28;98870.59;5083329;28;20460;-73
2021/11/03 05:16:45;;;;;;;29.13;18.87;;;;;;;4.78;78.69;98865.16;5082578;28;20490;-73
2021/11/03 05:19:20;;;;;;;27.10;17.27;;;;;;;4.84;78.38;98873.41;5080528;28;20527;-73
2021/11/03 05:21:50;;;;;;;28.60;17.20;;;;;;;4.82;78.11;98880.63;5082092;28;20479;-73
2021/11/03 05:24:17;;;;;;;28.47;18.30;;;;;;;4.81;77.92;98883.41;5082799;28;20798;-73
2021/11/03 05:26:43;;;;;;;29.33;16.53;;;;;;;4.80;77.69;98879.09;5080011;28;20497;-72
2021/11/03 05:29:11;;;;;;;29.80;17.93;;;;;;;4.78;77.85;98883.69;5082781;28;20468;-73
2021/11/03 05:31:38;;;;;;;28.37;17.70;;;;;;;4.69;77.91;98888.00;5081798;28;20480;-72
2021/11/03 05:34:06;;;;;;;30.17;18.07;;;;;;;4.68;78.06;98895.09;5081147;28;20459;-73
2021/11/03 05:36:33;;;;;;;33.80;18.97;;;;;;;4.66;77.94;98896.22;5080717;28;20826;-73
2021/11/03 05:39:04;;;;;;;29.50;17.27;;;;;;;4.67;77.97;98895.22;5082617;28;20463;-74
2021/11/03 05:41:31;;;;;;;32.03;18.47;;;;;;;4.66;77.97;98901.50;5080021;28;20472;-74
2021/11/03 05:43:59;;;;;;;27.93;17.60;;;;;;;4.64;78.09;98896.34;5081927;28;20785;-74
2021/11/03 05:46:30;;;;;;;30.53;17.07;;;;;;;4.64;78.07;98890.22;5080485;28;20480;-74
2021/11/03 05:49:03;;;;;;;27.20;17.30;;;;;;;4.63;78.04;98881.41;5081446;28;20488;-73
2021/11/03 05:51:31;;;;;;;34.50;18.43;;;;;;;4.66;78.19;98875.84;5081278;28;20507;-73
2021/11/03 05:53:57;;;;;;;27.13;16.93;;;;;;;4.67;78.13;98868.75;5081848;28;20467;-73
2021/11/03 05:56:24;;;;;;;30.37;16.67;;;;;;;4.61;77.77;98869.31;5080784;28;20889;-74
2021/11/03 05:58:51;;;;;;;26.43;16.27;;;;;;;4.57;77.92;98870.56;5082489;28;20671;-74
2021/11/03 06:01:18;;;;;;;25.97;16.53;;;;;;;4.59;77.70;98872.09;5081458;28;20467;-73
2021/11/03 06:03:45;;;;;;;31.80;17.23;;;;;;;4.61;77.41;98871.97;5081425;28;20515;-73
2021/11/03 06:06:12;;;;;;;24.00;16.37;;;;;;;4.56;77.31;98884.75;5080476;28;20548;-74
2021/11/03 06:08:40;;;;;;;29.93;17.00;;;;;;;4.47;77.52;98875.81;5082911;28;20432;-74
2021/11/03 06:11:10;;;;;;;24.40;16.83;;;;;;;4.43;78.26;98879.72;5081004;28;20502;-74
2021/11/03 06:13:38;;;;;;;30.40;18.70;;;;;;;4.38;78.53;98879.28;5081377;28;20523;-75
2021/11/03 06:16:05;;;;;;;27.50;17.40;;;;;;;4.14;79.15;98881.28;5080928;28;20962;-74
2021/11/03 06:18:32;;;;;;;26.73;16.40;;;;;;;4.11;79.36;98891.28;5080665;28;20460;-75
2021/11/03 06:20:59;;;;;;;30.73;17.20;;;;;;;4.23;79.31;98892.03;5083265;28;20474;-74
2021/11/03 06:23:25;;;;;;;24.70;17.20;;;;;;;4.43;78.73;98903.53;5086221;28;20681;-75
2021/11/03 06:25:53;;;;;;;25.03;16.17;;;;;;;4.47;78.36;98899.66;5084790;28;20492;-75
2021/11/03 06:28:20;;;;;;;24.50;14.87;;;;;;;4.45;78.74;98893.66;5083242;28;20496;-75
2021/11/03 06:30:47;;;;;;;32.50;17.50;;;;;;;4.49;78.92;98890.59;5084946;28;20495;-76
2021/11/03 06:33:15;;;;;;;30.30;16.90;;;;;;;4.68;78.37;98888.97;5073592;28;20440;-75
2021/11/03 06:35:45;;;;;;;25.13;16.97;;;;;;;4.72;78.05;98885.06;5084147;28;20497;-75
2021/11/03 06:38:14;;;;;;;28.20;16.50;;;;;;;4.83;77.74;98900.84;5080797;28;20452;-74
2021/11/03 06:40:41;;;;;;;26.83;16.57;;;;;;;4.88;77.29;98901.25;5078103;28;20472;-75
2021/11/03 06:43:10;;;;;;;28.30;18.20;;;;;;;4.89;77.33;98894.97;5078694;28;20443;-75
2021/11/03 06:45:36;;;;;;;28.33;16.07;;;;;;;4.92;77.31;98906.28;5085131;28;20589;-75
2021/11/03 06:48:04;;;;;;;27.87;15.43;;;;;;;5.15;76.61;98909.50;5084611;28;20469;-75
2021/11/03 06:50:34;;;;;;;27.30;17.33;;;;;;;5.13;76.52;98903.50;5085470;28;20492;-74
2021/11/03 06:53:02;;;;;;;28.83;17.80;;;;;;;5.09;76.67;98913.56;5085963;28;20455;-74
2021/11/03 06:55:29;;;;;;;27.17;16.70;;;;;;;5.17;76.80;98918.97;5085229;28;20526;-75
2021/11/03 06:57:57;;;;;;;26.40;16.67;;;;;;;5.22;76.65;98919.41;5086170;28;20475;-75
2021/11/03 07:00:28;;;;;;;26.67;15.60;;;;;;;4.94;77.82;98920.22;5085153;28;20455;-75
2021/11/03 07:02:55;;;;;;;25.10;15.17;;;;;;;4.57;79.49;98919.03;5085035;28;20463;-75
2021/11/03 07:05:22;;;;;;;27.33;16.20;;;;;;;4.76;79.32;98920.91;5084165;28;20471;-74
2021/11/03 07:07:49;;;;;;;26.23;15.87;;;;;;;4.85;79.09;98912.13;5085423;28;20459;-75
2021/11/03 07:10:20;;;;;;;28.30;17.63;;;;;;;4.82;79.15;98915.03;5084248;28;20474;-74
2021/11/03 07:12:46;;;;;;;25.20;16.00;;;;;;;5.00;78.96;98925.81;5084601;28;20452;-74
2021/11/03 07:15:13;;;;;;;25.43;16.27;;;;;;;5.02;78.29;98928.34;5083984;28;20464;-74
2021/11/03 07:17:41;;;;;;;29.63;16.57;;;;;;;4.95;78.38;98933.34;5084574;28;20456;-74
2021/11/03 07:20:09;;;;;;;25.27;17.47;;;;;;;5.02;78.03;98934.47;5085198;28;20432;-74
2021/11/03 07:22:36;;;;;;;26.43;16.40;;;;;;;5.19;77.62;98934.75;5085495;28;20896;-74
2021/11/03 07:25:02;;;;;;;27.10;17.93;;;;;;;5.19;77.63;98934.75;5084316;28;20475;-75
2021/11/03 07:27:29;;;;;;;30.87;18.23;;;;;;;5.21;77.68;98938.13;5084522;28;20539;-74
2021/11/03 07:29:56;;;;;;;27.63;16.60;;;;;;;5.15;78.12;98934.19;5083865;28;20436;-74
2021/11/03 07:32:22;;;;;;;30.50;18.20;;;;;;;5.05;78.59;98933.34;5082924;28;20504;-75
2021/11/03 07:34:50;;;;;;;29.97;17.63;;;;;;;5.19;78.51;98932.09;5084951;28;20543;-74
2021/11/03 07:37:17;;;;;;;31.27;17.57;;;;;;;5.23;78.50;98936.16;5084193;28;20486;-75
2021/11/03 07:39:44;;;;;;;26.30;16.77;;;;;;;5.30;78.67;98928.50;5084580;28;20936;-74
2021/11/03 07:42:11;;;;;;;34.13;17.77;;;;;;;5.42;78.38;98937.97;5076413;28;20470;-74
2021/11/03 07:44:37;;;;;;;25.60;16.87;;;;;;;5.18;78.54;98933.91;5061821;28;20457;-74
2021/11/03 07:47:04;;;;;;;41.67;19.27;;;;;;;5.17;79.73;98928.75;5062463;28;21099;-74
2021/11/03 07:49:31;;;;;;;29.30;17.97;;;;;;;5.50;79.33;98934.59;5066053;28;20689;-73
2021/11/03 07:51:59;;;;;;;26.87;17.13;;;;;;;5.64;79.05;98934.16;5062573;28;20484;-74
2021/11/03 07:54:26;;;;;;;31.20;18.13;;;;;;;5.43;79.31;98935.19;5063361;28;20456;-74
2021/11/03 07:56:53;;;;;;;24.87;16.03;;;;;;;5.52;79.42;98938.81;5076246;28;20472;-74
2021/11/03 07:59:20;;;;;;;30.20;16.27;;;;;;;5.40;79.54;98932.81;5082805;28;20562;-75
2021/11/03 08:01:47;;;;;;;26.93;16.27;;;;;;;5.57;79.16;98925.97;5082299;28;20515;-74
2021/11/03 08:04:14;;;;;;;27.87;17.63;;;;;;;5.69;78.91;98936.41;5082591;28;20488;-73
2021/11/03 08:06:41;;;;;;;28.33;17.87;;;;;;;6.22;80.66;98941.19;5081457;28;20472;-74
2021/11/03 08:09:10;;;;;;;25.60;16.20;;;;;;;6.30;79.96;98936.00;5083230;28;20629;-74
2021/11/03 08:11:46;;;;;;;28.20;16.77;;;;;;;6.82;78.33;98927.47;5081824;28;20515;-74
2021/11/03 08:14:13;;;;;;;26.33;17.43;;;;;;;6.47;77.01;98934.38;5083097;28;20436;-73
2021/11/03 08:16:46;;;;;;;27.37;16.77;;;;;;;6.38;76.97;98933.44;5082348;28;20529;-74
2021/11/03 08:19:12;;;;;;;24.00;15.50;;;;;;;6.32;77.33;98934.03;5082424;28;20546;-75
2021/11/03 08:21:39;;;;;;;28.27;16.97;;;;;;;6.19;77.62;98930.88;5081951;28;20495;-74
2021/11/03 08:24:06;;;;;;;25.57;16.73;;;;;;;6.22;77.59;98931.41;5082821;28;20481;-75
2021/11/03 08:26:34;;;;;;;26.03;15.97;;;;;;;6.13;77.89;98920.84;5081589;28;20486;-75
2021/11/03 08:29:01;;;;;;;27.80;17.17;;;;;;;6.05;78.38;98915.41;5082342;28;20443;-75
2021/11/03 08:31:28;;;;;;;24.70;16.80;;;;;;;6.02;78.40;98914.75;5080927;28;21065;-74
2021/11/03 08:33:55;;;;;;;26.73;16.07;;;;;;;6.21;78.19;98905.88;5081878;28;20482;-74
2021/11/03 08:36:21;;;;;;;21.60;14.90;;;;;;;6.44;78.19;98902.84;5081016;28;20464;-74
2021/11/03 08:38:49;;;;;;;27.40;15.70;;;;;;;6.43;77.70;98890.53;5082896;28;20439;-74
2021/11/03 08:41:16;;;;;;;19.17;13.57;;;;;;;6.66;77.04;98892.78;5079733;28;20468;-74
2021/11/03 08:43:46;;;;;;;23.27;14.80;;;;;;;6.01;78.31;98899.78;5081760;28;20770;-73
2021/11/03 08:46:14;;;;;;;23.63;14.13;;;;;;;6.45;78.29;98904.50;5080694;28;20487;-74
2021/11/03 08:48:41;;;;;;;23.27;15.37;;;;;;;6.56;77.91;98906.09;5081009;28;20464;-74
2021/11/03 08:51:08;;;;;;;25.60;15.17;;;;;;;6.72;77.06;98903.66;5081579;28;20501;-74
2021/11/03 08:53:34;;;;;;;23.23;15.77;;;;;;;6.91;76.71;98904.50;5083081;28;20448;-75
2021/11/03 08:56:01;;;;;;;24.30;14.87;;;;;;;6.71;76.39;98907.28;5080561;28;20479;-74
2021/11/03 08:58:28;;;;;;;23.37;16.60;;;;;;;6.56;77.38;98908.75;5082430;28;20462;-75
2021/11/03 09:00:58;;;;;;;26.77;16.77;;;;;;;6.82;77.02;98897.44;5081433;28;20547;-75
2021/11/03 09:03:25;;;;;;;24.37;14.93;;;;;;;7.19;75.94;98899.13;5080020;28;20533;-75
2021/11/03 09:05:53;;;;;;;23.03;16.10;;;;;;;7.44;75.13;98921.44;5081208;28;20488;-74
2021/11/03 09:08:20;;;;;;;25.70;16.67;;;;;;;7.24;75.13;98924.28;5081933;28;20743;-73
2021/11/03 09:10:49;;;;;;;18.60;13.83;;;;;;;7.57;74.42;98923.72;5080077;28;20471;-74
2021/11/03 09:13:18;;;;;;;21.03;14.10;;;;;;;7.26;75.35;98926.78;5081338;28;20991;-74
2021/11/03 09:15:45;;;;;;;21.03;13.57;;;;;;;7.53;74.80;98923.19;5081496;28;20459;-75
2021/11/03 09:18:14;;;;;;;20.80;14.17;;;;;;;7.56;74.05;98917.56;5080336;28;20528;-75
2021/11/03 09:20:41;;;;;;;23.00;15.10;;;;;;;7.31;75.54;98921.84;5081061;28;20543;-75
2021/11/03 09:23:08;;;;;;;18.23;12.57;;;;;;;7.24;76.00;98923.41;5082216;28;20439;-75
2021/11/03 09:25:35;;;;;;;21.47;14.23;;;;;;;7.46;75.06;98922.13;5080572;28;20468;-75
2021/11/03 09:28:02;;;;;;;22.93;15.10;;;;;;;7.54;74.83;98925.69;5081724;28;20436;-75
2021/11/03 09:30:30;;;;;;;21.60;14.07;;;;;;;7.62;74.66;98924.09;5081057;28;20498;-75
2021/11/03 09:33:02;;;;;;;24.70;14.63;;;;;;;7.48;74.84;98926.31;5080230;28;20537;-75
2021/11/03 09:35:33;;;;;;;20.43;13.33;;;;;;;7.61;74.80;98914.44;5079624;28;20521;-76
2021/11/03 09:38:01;;;;;;;20.23;12.77;;;;;;;7.78;74.39;98918.91;5081765;28;20436;-75
2021/11/03 09:40:32;;;;;;;21.43;13.83;;;;;;;7.81;74.31;98915.94;5066733;28;20464;-75
2021/11/03 09:42:59;;;;;;;17.50;12.90;;;;;;;7.66;75.06;98912.16;5060817;28;20429;-75
2021/11/03 09:45:30;;;;;;;20.67;13.70;;;;;;;7.77;74.75;98908.41;5060411;28;20473;-75
2021/11/03 09:47:59;;;;;;;23.10;14.33;;;;;;;7.75;74.54;98913.88;5075305;28;20448;-75
2021/11/03 09:50:27;;;;;;;18.40;12.43;;;;;;;7.89;74.06;98907.97;5080559;28;20510;-74
2021/11/03 09:52:57;;;;;;;20.27;14.03;;;;;;;8.03;74.37;98903.91;5081104;28;20479;-75
2021/11/03 09:55:27;;;;;;;16.70;12.13;;;;;;;8.28;73.79;98904.03;5079618;28;20452;-75
2021/11/03 09:58:04;;;;;;;18.60;12.10;;;;;;;8.19;73.89;98911.16;5081381;28;20456;-74
2021/11/03 10:00:38;;;;;;;16.80;12.07;;;;;;;8.55;73.37;98902.22;5080754;28;20521;-75
2021/11/03 10:03:15;;;;;;;15.90;11.80;;;;;;;8.76;72.63;98899.94;5080002;28;20974;-75
2021/11/03 10:05:46;;;;;;;20.37;13.67;;;;;;;8.90;72.36;98901.13;5080809;28;20748;-75
2021/11/03 10:08:18;;;;;;;16.10;11.73;;;;;;;8.86;72.10;98894.47;5081596;28;20984;-74
2021/11/03 10:10:51;;;;;;;16.87;12.43;;;;;;;9.08;71.66;98893.03;5079525;28;20472;-75
2021/11/03 10:13:21;;;;;;;16.37;11.80;;;;;;;8.51;73.09;98892.88;5080377;28;20850;-74
2021/11/03 10:15:56;;;;;;;17.70;13.17;;;;;;;8.45;73.67;98891.66;5079709;28;20475;-75
2021/11/03 10:18:25;;;;;;;15.07;11.93;;;;;;;8.54;73.45;98898.72;5079202;28;20443;-74
2021/11/03 10:21:15;;;;;;;19.37;12.30;;;;;;;8.41;73.89;98891.13;5080342;28;20502;-74
2021/11/03 10:23:51;;;;;;;16.83;12.17;;;;;;;8.64;73.63;98893.25;5079789;28;20525;-74
2021/11/03 10:26:18;;;;;;;17.87;13.50;;;;;;;8.61;73.90;98897.06;5079083;28;20472;-75
2021/11/03 10:28:48;;;;;;;22.60;13.97;;;;;;;8.67;73.50;98891.06;5080665;28;20509;-75
2021/11/03 10:31:28;;;;;;;19.93;14.43;;;;;;;8.91;73.36;98888.66;5079856;28;20479;-75
2021/11/03 10:34:01;;;;;;;15.90;12.37;;;;;;;8.90;73.20;98898.47;5079694;28;20940;-74
2021/11/03 10:36:38;;;;;;;19.83;14.03;;;;;;;8.97;72.85;98901.31;5080153;28;20897;-74
2021/11/03 10:39:15;;;;;;;20.03;14.37;;;;;;;8.57;73.78;98908.19;5079816;28;20431;-74
2021/11/03 10:41:42;;;;;;;20.80;14.60;;;;;;;8.84;73.30;98905.28;5066749;28;20539;-74
2021/11/03 10:44:20;;;;;;;22.87;15.83;;;;;;;8.98;73.27;98903.81;5060493;28;20429;-74
2021/11/03 10:46:53;;;;;;;22.07;16.43;;;;;;;8.89;72.79;98906.63;5067969;28;20483;-74
2021/11/03 10:52:16;;;;;;;21.47;15.90;;;;;;;8.77;73.82;98903.44;5079634;28;20476;-74
2021/11/03 10:54:48;;;;;;;22.60;15.10;;;;;;;8.84;73.62;98905.28;5079779;28;20424;-73
2021/11/03 10:57:25;;;;;;;21.20;15.77;;;;;;;8.94;73.63;98902.50;5079291;28;20506;-74
2021/11/03 11:00:00;;;;;;;20.50;14.67;;;;;;;9.12;73.15;98906.84;5080495;28;20530;-74
2021/11/03 11:02:30;;;;;;;21.57;15.40;;;;;;;8.91;73.73;98910.00;5078862;28;20447;-74
2021/11/03 11:04:59;;;;;;;20.40;14.10;;;;;;;9.10;73.06;98899.03;5079465;28;20493;-74
2021/11/03 11:07:29;;;;;;;21.00;15.30;;;;;;;9.18;72.39;98908.84;5079181;28;20517;-75
2021/11/03 11:10:03;;;;;;;26.43;15.00;;;;;;;8.86;74.15;98903.28;5084064;28;20428;-74
2021/11/03 11:12:32;;;;;;;23.90;15.80;;;;;;;8.82;74.00;98906.47;5082564;28;20552;-74
2021/11/03 11:15:02;;;;;;;23.00;16.40;;;;;;;9.01;74.06;98903.50;5083946;28;20515;-74
2021/11/03 11:17:33;;;;;;;23.10;15.93;;;;;;;9.31;72.75;98903.88;5081689;28;20472;-74
2021/11/03 11:20:10;;;;;;;20.73;14.93;;;;;;;9.22;72.36;98899.53;5084026;28;20851;-73
2021/11/03 11:22:54;;;;;;;18.20;14.10;;;;;;;9.16;72.95;98895.69;5083031;28;20489;-73
2021/11/03 11:25:25;;;;;;;20.30;14.77;;;;;;;9.18;73.12;98887.53;5081027;28;20463;-73
2021/11/03 11:28:05;;;;;;;17.83;14.60;;;;;;;9.43;72.66;98896.38;5083375;28;20509;-73
2021/11/03 11:30:40;;;;;;;20.73;14.60;;;;;;;9.52;72.16;98890.03;5083252;28;20907;-72
2021/11/03 11:33:12;;;;;;;19.07;13.87;;;;;;;9.47;72.35;98892.38;5082209;28;20487;-72